• Join FlightAware (Why Join?)
  • Login
  • US Flag 
10:28PM EDT


 

Airport Tracker/Info


-or-


 

Live Flight TrackerFlight Track Log ✈ SKW4644 ✈ 28-Dec-2013 ✈ KLGB - KSLC

Flight Track Log - Related Links

Times and Time Zones

All times are in EST time to prevent confusion due to time zone crossing. See the SKW4644 flight status page for this flight to view local times or setup timezone preferences in your user account.

Time Position Orientation Groundspeed Altitude Reporting Facility
EST Latitude Longitude Course Direction KTS MPH feet Rate Location/Type
01:32PM 33.8306 -118.2364 246° West 211 243 4,100  Level Los Angeles Center
01:33PM 33.7656 -118.2492 189° South 230 265 6,800 2,520 Climbing Los Angeles Center
01:34PM 34.0015 -117.8379 29° Northeast  Level FlightAware Approximate
01:34PM 33.6967 -118.2594 187° South 240 276 9,400  Level Los Angeles Center
01:35PM 34.0947 -117.7508 49° Northeast  Level FlightAware Approximate
01:35PM 33.6383 -118.2078 144° Southeast 299 344 10,200  Level Los Angeles Center
01:36PM 34.1724 -117.6424 48° Northeast  Level FlightAware Approximate
01:36PM 33.6903 -118.1253 53° Northeast 345 397 12,600  Level Los Angeles Center
01:37PM 33.7694 -118.0669 31° Northeast 338 389 15,000 2,760 Climbing Los Angeles Center
01:38PM 33.8583 -117.9875 37° Northeast 334 384 18,400 2,460 Climbing Los Angeles Center
01:39PM 33.9319 -117.9197 37° Northeast 334 384 20,200 1,620 Climbing Los Angeles Center
01:40PM 34.0100 -117.8503 36° Northeast 347 399 21,800 1,740 Climbing Los Angeles Center
01:41PM 34.0906 -117.7764 37° Northeast 362 417 23,900 1,920 Climbing Los Angeles Center
01:42PM 34.1569 -117.6861 48° Northeast 359 413 25,800 1,620 Climbing Los Angeles Center
01:43PM 34.2239 -117.5953 48° Northeast 363 418 27,300 1,320 Climbing Los Angeles Center
01:44PM 34.3064 -117.4831 48° Northeast 370 426 28,600 780 Climbing Los Angeles Center
01:45PM 34.3781 -117.3856 48° Northeast 385 443 29,000 720 Climbing Los Angeles Center
01:46PM 34.4553 -117.2797 48° Northeast 400 460 30,100 900 Climbing Los Angeles Center
01:47PM 34.5306 -117.1764 48° Northeast 409 471 30,900 420 Climbing Los Angeles Center
01:49PM 34.6097 -117.0683 48° Northeast 426 490 31,000  Climbing Los Angeles Center
01:50PM 34.6917 -116.9542 49° Northeast 444 511 31,000  Level Los Angeles Center
01:51PM 34.7742 -116.8392 49° Northeast 452 520 31,000  Level Los Angeles Center
01:52PM 34.8697 -116.7058 49° Northeast 444 511 31,000 60 Level Los Angeles Center
01:53PM 34.9489 -116.5961 49° Northeast 436 502 31,200 300 Climbing Los Angeles Center
01:54PM 35.0314 -116.4850 48° Northeast 438 504 31,700 660 Climbing Los Angeles Center
01:55PM 35.1217 -116.3750 45° Northeast 446 513 32,600 1,140 Climbing Los Angeles Center
01:56PM 35.2100 -116.2664 45° Northeast 451 519 34,100 1,140 Climbing Los Angeles Center
01:57PM 35.3086 -116.1389 47° Northeast 436 502 35,000 420 Climbing Los Angeles Center
01:58PM 35.3953 -116.0333 45° Northeast 439 505 35,000  Level Los Angeles Center
01:59PM 35.5006 -115.9497 33° Northeast 447 514 35,000  Level Los Angeles Center
02:00PM 35.6161 -115.8536 34° Northeast 448 516 35,000  Level Los Angeles Center
02:01PM 35.7161 -115.7706 34° Northeast 438 504 35,000  Level Los Angeles Center
02:02PM 35.8150 -115.6842 35° Northeast 437 503 35,000  Level Los Angeles Center
02:03PM 35.9139 -115.5994 35° Northeast 436 502 35,000  Level Los Angeles Center
02:04PM 36.0114 -115.5161 35° Northeast 431 496 35,000  Level Los Angeles Center
02:05PM 36.1281 -115.4142 35° Northeast 432 497 35,000  Level Los Angeles Center
02:06PM 36.2258 -115.3292 35° Northeast 435 501 35,000  Level Los Angeles Center
02:07PM 36.3239 -115.2433 35° Northeast 438 504 35,000  Level Los Angeles Center
02:08PM 36.4236 -115.1553 35° Northeast 443 510 35,000  Level Los Angeles Center
02:09PM 36.5444 -115.0492 35° Northeast 444 511 35,000  Level Los Angeles Center
02:10PM 36.6458 -114.9597 35° Northeast 447 514 35,000  Level Los Angeles Center
02:11PM 36.7472 -114.8711 35° Northeast 446 513 35,000  Level Los Angeles Center
02:12PM 36.8531 -114.7781 35° Northeast 448 516 35,000  Level Los Angeles Center
02:13PM 36.9556 -114.6875 35° Northeast 450 518 35,000  Level Los Angeles Center
02:14PM 37.0581 -114.5961 35° Northeast 452 520 35,000  Level Los Angeles Center
02:15PM 37.1764 -114.4894 36° Northeast 453 521 35,000  Level Los Angeles Center
02:16PM 37.2803 -114.3972 35° Northeast 456 525 35,000  Level Los Angeles Center
02:17PM 37.3878 -114.3000 36° Northeast 456 525 35,000  Level Los Angeles Center
02:19PM 37.4919 -114.2050 36° Northeast 460 529 35,000  Level Los Angeles Center
02:20PM 37.5958 -114.1094 36° Northeast 461 531 35,000  Level Los Angeles Center
02:21PM 37.7006 -114.0150 36° Northeast 464 534 35,000  Level Salt Lake Center
02:22PM 37.8050 -113.9183 36° Northeast 464 534 35,000  Level Salt Lake Center
02:23PM 37.9114 -113.8208 36° Northeast 468 539 35,000 -240 Level Salt Lake Center
02:24PM 38.0372 -113.7039 36° Northeast 467 537 34,600 -600 Descending Salt Lake Center
02:25PM 38.1386 -113.6083 37° Northeast 457 526 33,800 -780 Descending Salt Lake Center
02:26PM 38.2447 -113.5114 36° Northeast 465 535 33,000 -780 Descending Salt Lake Center
02:27PM 38.3503 -113.4133 36° Northeast 468 539 32,200 -780 Descending Salt Lake Center
02:28PM 38.4575 -113.3125 36° Northeast 475 547 31,400 -600 Descending Salt Lake Center
02:29PM 38.5664 -113.2106 36° Northeast 482 555 31,000 -240 Descending Salt Lake Center
02:30PM 38.6692 -113.1103 37° Northeast 472 543 31,000  Level Salt Lake Center
02:31PM 38.7875 -112.9994 36° Northeast 447 514 31,000  Level Salt Lake Center
02:32PM 38.8858 -112.9069 36° Northeast 441 507 31,000  Level Salt Lake Center
02:33PM 38.9850 -112.8125 37° Northeast 442 509 31,000  Level Salt Lake Center
02:34PM 39.0844 -112.7167 37° Northeast 445 512 31,000 -780 Level Salt Lake Center
02:35PM 39.1836 -112.6197 37° Northeast 447 514 29,400 -1,860 Descending Salt Lake Center
02:36PM 39.2944 -112.5147 36° Northeast 438 504 27,200 -2,040 Descending Salt Lake Center
02:37PM 39.3997 -112.4431 28° Northeast 433 498 25,200 -1,980 Descending Salt Lake Center
02:38PM 39.5064 -112.3892 21° North 414 476 23,200 -2,040 Descending Salt Lake Center
02:39PM 39.6075 -112.3311 24° Northeast 400 460 21,100 -1,740 Descending Salt Lake Center
02:40PM 39.7008 -112.2767 24° Northeast 371 427 19,700 -1,680 Descending Salt Lake Center
02:41PM 39.7978 -112.2208 24° Northeast 322 371 17,700 -1,740 Descending Salt Lake Center
02:42PM 39.8786 -112.1742 24° Northeast 319 367 16,200 -1,560 Descending Salt Lake Center
02:43PM 39.9144 -112.1614 15° North 322 371 15,500 -1,200 Descending Salt Lake Center
02:43PM 39.9586 -112.1269 31° Northeast 314 361 15,000 -600 Descending Salt Lake Center
02:44PM 39.9817 -112.1194 14° North 311 358 15,000 -240 Level Salt Lake Center
02:44PM 40.0381 -112.0800 28° Northeast 315 362 14,800 -540 Descending Salt Lake Center
02:45PM 40.0664 -112.0686 17° North 312 359 14,500 -720 Descending Salt Lake Center
02:45PM 40.1147 -112.0333 29° Northeast 303 349 14,100 -720 Descending Salt Lake Center
02:46PM 40.1489 -112.0183 19° North 301 346 13,700 -900 Descending Salt Lake Center
02:46PM 40.1886 -111.9883 30° Northeast 292 336 13,200 -900 Descending Salt Lake Center
02:47PM 40.2206 -111.9775 15° North 278 320 12,800 -1,200 Descending Salt Lake Center
02:47PM 40.2703 -111.9394 30° Northeast 271 312 12,000 -1,200 Descending Salt Lake Center
02:48PM 40.2881 -111.9378 North 253 291 11,600 -1,020 Descending Salt Lake Center
02:48PM 40.3372 -111.9139 20° North 255 293 11,000 -600 Descending Salt Lake Center
02:49PM 40.3597 -111.9192 350° North 257 296 11,000 -240 Level Salt Lake Center
02:50PM 40.4053 -111.9197 359° North 241 277 10,800 -480 Descending Salt Lake Center
02:50PM 40.4300 -111.9264 348° North 231 266 10,500 -720 Descending Salt Lake Center
02:51PM 40.4683 -111.9283 358° North 230 265 10,100 -840 Descending Salt Lake Center
02:51PM 40.4897 -111.9342 348° North 206 237 9,700 -1,020 Descending Salt Lake Center
02:52PM 40.5217 -111.9350 359° North 189 217 9,100 -720 Descending Salt Lake Center
02:52PM 40.5450 -111.9411 349° North 185 213 9,000 -600 Descending Salt Lake Center
02:53PM 40.5722 -111.9394 North 182 209 8,500 -1,140 Descending Salt Lake Center
02:53PM 40.5911 -111.9450 347° North 180 207 8,000 -1,380 Descending Salt Lake Center
02:54PM 40.6308 -111.9461 359° North 176 203 7,100 -1,140 Descending Salt Lake Center
02:54PM 40.6394 -111.9511 336° Northwest 175 201 6,900 -900 Descending Salt Lake Center
02:55PM 40.6800 -111.9522 359° North 177 204 6,200 -900 Descending Salt Lake Center
02:55PM 40.6875 -111.9547 346° North 173 199 6,000 -780 Descending Salt Lake Center
02:56PM 40.7214 -111.9569 357° North 152 175 5,400 -840 Descending Salt Lake Center
02:56PM 40.7297 -111.9603 343° North 146 168 5,200 -960 Descending Salt Lake Center
02:57PM 40.7692 -111.9639 356° North 153 176 4,300 -900 Descending Salt Lake Center